Time;durP1;ratioP1;P1;durP2;ratioP2;P2;SDS_P1;SDS_P2;PMS_P1;PMS_P2;Temp;Humidity;BMP_temperature;BMP_pressure;BME280_temperature;BME280_humidity;BME280_pressure;Samples;Min_cycle;Max_cycle;Signal;HPM_P1;HPM_P2
2021/08/28 00:00:16;;;;;;;15.85;11.00;;;;;;;12.47;75.56;100496.20;1785041;78;28400;-70
2021/08/28 00:02:42;;;;;;;21.80;10.95;;;;;;;12.45;75.63;100498.11;1772840;78;25752;-70
2021/08/28 00:05:09;;;;;;;18.50;10.72;;;;;;;12.45;75.70;100501.27;1787586;77;25778;-70
2021/08/28 00:07:35;;;;;;;19.00;11.75;;;;;;;12.44;75.79;100500.41;1789605;78;26506;-70
2021/08/28 00:10:01;;;;;;;20.12;11.97;;;;;;;12.44;75.80;100503.09;1778306;78;26347;-70
2021/08/28 00:12:27;;;;;;;20.23;11.15;;;;;;;12.44;75.85;100499.06;1783905;77;27404;-70
2021/08/28 00:14:53;;;;;;;23.02;11.25;;;;;;;12.43;75.84;100501.83;1782690;78;25721;-71
2021/08/28 00:17:18;;;;;;;16.73;10.55;;;;;;;12.41;75.88;100501.05;1788756;77;25966;-70
2021/08/28 00:20:06;;;;;;;25.80;12.05;;;;;;;12.35;75.87;100504.45;1787194;78;25812;-70
2021/08/28 00:22:32;;;;;;;18.30;10.90;;;;;;;12.29;75.94;100497.19;1788465;77;25766;-70
2021/08/28 00:24:58;;;;;;;17.87;10.48;;;;;;;12.25;75.99;100492.45;1791065;77;29596;-70
2021/08/28 00:27:24;;;;;;;21.52;10.23;;;;;;;12.16;76.08;100482.18;1802903;77;25669;-70
2021/08/28 00:29:50;;;;;;;30.70;12.58;;;;;;;12.19;76.11;100489.21;1787212;78;25647;-70
2021/08/28 00:32:17;;;;;;;20.43;11.03;;;;;;;12.15;76.16;100486.30;1794754;78;25755;-70
2021/08/28 00:34:43;;;;;;;23.15;12.63;;;;;;;12.14;76.24;100488.11;1785383;77;25966;-70
2021/08/28 00:37:09;;;;;;;26.50;13.35;;;;;;;12.13;76.30;100482.81;1782413;78;27362;-71
2021/08/28 00:39:35;;;;;;;21.45;13.43;;;;;;;12.11;76.37;100480.20;1791224;77;25729;-70
2021/08/28 00:42:01;;;;;;;23.02;13.05;;;;;;;12.12;76.44;100486.45;1780517;77;25733;-70
2021/08/28 00:44:26;;;;;;;23.95;13.85;;;;;;;12.13;76.48;100484.16;1783326;77;25828;-70
2021/08/28 00:46:57;;;;;;;26.87;14.43;;;;;;;12.11;76.51;100480.20;1800842;77;25755;-70
2021/08/28 00:49:24;;;;;;;21.23;13.58;;;;;;;12.10;76.53;100481.63;1792157;77;27423;-70
2021/08/28 00:51:50;;;;;;;25.30;12.37;;;;;;;12.09;76.60;100482.58;1783576;78;25740;-70
2021/08/28 00:54:18;;;;;;;22.87;12.65;;;;;;;12.10;76.65;100481.63;1786290;78;25746;-70
2021/08/28 00:56:44;;;;;;;23.35;13.22;;;;;;;12.07;76.68;100477.28;1777778;77;26757;-70
2021/08/28 00:59:10;;;;;;;27.25;13.35;;;;;;;12.05;76.71;100477.84;1794776;78;25666;-71
2021/08/28 01:01:42;;;;;;;22.90;13.05;;;;;;;12.02;76.75;100479.34;1792154;77;27426;-71
2021/08/28 01:04:14;;;;;;;28.32;12.78;;;;;;;11.99;76.79;100480.38;1778500;77;26441;-70
2021/08/28 01:07:03;;;;;;;21.75;12.80;;;;;;;11.97;76.84;100476.03;1786813;78;25709;-70
2021/08/28 01:09:35;;;;;;;20.52;12.35;;;;;;;11.95;76.90;100478.80;1783363;77;26349;-70
2021/08/28 01:12:15;;;;;;;21.45;13.25;;;;;;;11.94;76.95;100479.74;1783245;77;25740;-70
2021/08/28 01:14:46;;;;;;;28.65;13.00;;;;;;;11.92;76.99;100476.73;1769878;77;28072;-71
2021/08/28 01:17:14;;;;;;;22.93;12.55;;;;;;;11.92;77.01;100474.05;1768414;79;26203;-70
2021/08/28 01:20:02;;;;;;;19.27;11.95;;;;;;;11.89;77.05;100478.23;1776253;79;26286;-70
2021/08/28 01:22:30;;;;;;;24.95;14.33;;;;;;;11.86;77.07;100485.11;1768441;79;27848;-70
2021/08/28 01:24:58;;;;;;;32.50;14.03;;;;;;;11.84;77.12;100487.00;1768245;79;25749;-70
2021/08/28 01:27:50;;;;;;;24.75;13.25;;;;;;;11.81;77.13;100500.59;1766344;78;27437;-70
2021/08/28 01:30:17;;;;;;;26.02;12.40;;;;;;;11.78;77.15;100500.27;1768654;79;27210;-70
2021/08/28 01:32:44;;;;;;;17.25;10.98;;;;;;;11.72;77.19;100500.55;1772807;79;25753;-70
2021/08/28 01:35:11;;;;;;;26.33;11.83;;;;;;;11.72;77.25;100501.89;1775173;79;26280;-70
2021/08/28 01:37:43;;;;;;;17.37;10.80;;;;;;;11.71;77.29;100506.86;1770400;79;25753;-71
2021/08/28 01:40:11;;;;;;;17.45;10.95;;;;;;;11.70;77.30;100507.33;1774286;79;27421;-71
2021/08/28 01:42:38;;;;;;;16.25;11.08;;;;;;;11.69;77.35;100513.65;1773950;79;25753;-70
2021/08/28 01:45:11;;;;;;;18.98;11.12;;;;;;;11.66;77.39;100515.14;1769810;79;25666;-70
2021/08/28 01:47:34;;;;;;;20.82;11.53;;;;;;;11.66;77.42;100519.64;1774631;79;25935;-70
2021/08/28 01:50:01;;;;;;;17.60;11.03;;;;;;;11.63;77.44;100523.83;1766084;79;25693;-70
2021/08/28 01:52:27;;;;;;;20.75;12.80;;;;;;;11.58;77.41;100522.71;1774201;79;28137;-70
2021/08/28 01:54:53;;;;;;;24.15;11.30;;;;;;;11.56;77.45;100529.97;1769594;79;25940;-70
2021/08/28 01:57:20;;;;;;;22.95;11.20;;;;;;;11.53;77.46;100530.59;1760493;79;25745;-70
2021/08/28 01:59:46;;;;;;;16.42;11.28;;;;;;;11.51;77.56;100534.70;1756059;79;25707;-70
2021/08/28 02:02:11;;;;;;;17.90;11.95;;;;;;;11.48;77.60;100531.29;1761325;79;25673;-71
2021/08/28 02:04:39;;;;;;;23.52;13.05;;;;;;;11.48;77.64;100535.31;1771695;79;27894;-70
2021/08/28 02:07:13;;;;;;;18.90;11.55;;;;;;;11.46;77.64;100535.86;1770307;79;25671;-70
2021/08/28 02:09:53;;;;;;;17.95;11.18;;;;;;;11.42;77.57;100535.14;1768186;79;26402;-71
2021/08/28 02:12:39;;;;;;;18.92;12.03;;;;;;;11.39;77.62;100532.13;1763519;79;25799;-71
2021/08/28 02:15:13;;;;;;;22.00;11.88;;;;;;;11.37;77.73;100531.81;1766007;79;25742;-70
2021/08/28 02:17:49;;;;;;;19.67;11.33;;;;;;;11.34;77.79;100531.95;1765708;79;27412;-70
2021/08/28 02:20:18;;;;;;;18.95;11.40;;;;;;;11.31;77.82;100530.30;1773633;79;27180;-70
2021/08/28 02:22:48;;;;;;;15.35;11.20;;;;;;;11.30;77.81;100529.89;1767796;79;25812;-70
2021/08/28 02:25:38;;;;;;;14.80;11.25;;;;;;;11.26;77.80;100526.95;1767000;79;25796;-71
2021/08/28 02:28:07;;;;;;;19.50;11.45;;;;;;;11.23;77.86;100520.40;1758375;79;25678;-71
2021/08/28 02:30:35;;;;;;;16.40;11.00;;;;;;;11.20;77.96;100523.23;1768237;79;27126;-70
2021/08/28 02:33:05;;;;;;;24.87;13.15;;;;;;;11.18;77.99;100517.54;1775440;79;27169;-70
2021/08/28 02:35:33;;;;;;;18.20;11.43;;;;;;;11.16;78.04;100519.42;1743134;79;25706;-70
2021/08/28 02:38:01;;;;;;;15.38;10.55;;;;;;;11.14;78.04;100522.66;1772915;79;27561;-71
2021/08/28 02:40:29;;;;;;;15.83;11.55;;;;;;;11.11;78.05;100519.64;1765464;79;25731;-70
2021/08/28 02:42:56;;;;;;;18.65;10.93;;;;;;;11.09;78.10;100520.66;1754862;79;29463;-70
2021/08/28 02:45:28;;;;;;;17.95;10.32;;;;;;;11.08;78.10;100525.16;1742269;80;25776;-70
2021/08/28 02:47:54;;;;;;;21.02;11.25;;;;;;;11.05;78.14;100526.17;1743426;80;25861;-72
2021/08/28 02:50:24;;;;;;;21.87;11.18;;;;;;;11.03;78.13;100525.84;1740658;79;26243;-70
2021/08/28 02:52:52;;;;;;;18.32;11.05;;;;;;;11.00;78.13;100532.22;1738316;79;25721;-70
2021/08/28 02:55:19;;;;;;;18.17;10.05;;;;;;;10.98;78.12;100525.19;1753846;79;27401;-70
2021/08/28 02:57:51;;;;;;;17.25;11.48;;;;;;;10.95;78.12;100523.98;1743057;79;25856;-71
2021/08/28 03:00:20;;;;;;;18.15;11.40;;;;;;;10.93;78.25;100526.74;1746840;80;25906;-70
2021/08/28 03:02:48;;;;;;;18.35;10.80;;;;;;;10.93;78.23;100528.08;1750894;80;25886;-70
2021/08/28 03:05:14;;;;;;;23.90;12.50;;;;;;;10.93;78.31;100536.59;1755220;79;25749;-70
2021/08/28 03:07:41;;;;;;;26.87;12.03;;;;;;;10.93;78.37;100525.88;1749879;79;27389;-70
2021/08/28 03:10:10;;;;;;;20.75;12.18;;;;;;;10.92;78.37;100526.34;1750919;79;25724;-70
2021/08/28 03:12:38;;;;;;;21.97;12.75;;;;;;;10.92;78.39;100521.45;1747868;79;25771;-69
2021/08/28 03:15:06;;;;;;;21.85;11.73;;;;;;;10.91;78.39;100520.58;1785839;79;25741;-68
2021/08/28 03:17:32;;;;;;;19.05;12.15;;;;;;;10.90;78.40;100520.66;1787901;79;25706;-69
2021/08/28 03:19:59;;;;;;;15.23;10.60;;;;;;;10.88;78.42;100524.75;1790411;77;28058;-68
2021/08/28 03:22:26;;;;;;;17.98;10.18;;;;;;;10.85;78.37;100522.20;1776872;78;25753;-69
2021/08/28 03:24:54;;;;;;;18.57;9.85;;;;;;;10.82;78.36;100522.81;1784169;78;26429;-69
2021/08/28 03:27:41;;;;;;;15.88;10.70;;;;;;;10.78;78.40;100519.41;1783279;78;25760;-68
2021/08/28 03:30:16;;;;;;;23.67;10.90;;;;;;;10.76;78.46;100517.27;1749875;79;25991;-68
2021/08/28 03:32:43;;;;;;;17.45;11.20;;;;;;;10.75;78.56;100519.55;1775882;78;28798;-69
2021/08/28 03:35:11;;;;;;;13.88;10.63;;;;;;;10.73;78.56;100518.28;1785588;79;25762;-69
2021/08/28 03:37:39;;;;;;;17.77;9.58;;;;;;;10.73;78.57;100517.41;1781946;79;25736;-69
2021/08/28 03:40:08;;;;;;;15.78;9.88;;;;;;;10.71;78.55;100523.31;1782451;79;25902;-69
2021/08/28 03:42:40;;;;;;;20.97;10.65;;;;;;;10.69;78.61;100515.34;1784618;79;25793;-69
2021/08/28 03:45:10;;;;;;;14.40;10.18;;;;;;;10.68;78.60;100511.39;1787408;79;27458;-67
2021/08/28 03:47:40;;;;;;;16.23;10.45;;;;;;;10.66;78.62;100512.80;1761126;79;25637;-67
2021/08/28 03:50:06;;;;;;;17.65;9.98;;;;;;;10.66;78.63;100518.63;1765711;79;25904;-68
2021/08/28 03:52:33;;;;;;;24.37;10.55;;;;;;;10.64;78.67;100516.49;1791248;78;25681;-68
2021/08/28 03:54:59;;;;;;;22.42;10.88;;;;;;;10.62;78.63;100519.24;1754326;80;25687;-68
2021/08/28 03:57:25;;;;;;;26.48;11.05;;;;;;;10.59;78.65;100522.06;1789425;78;28283;-67
2021/08/28 03:59:51;;;;;;;27.67;11.43;;;;;;;10.57;78.69;100525.28;1787315;78;25888;-68
2021/08/28 04:02:17;;;;;;;20.35;10.15;;;;;;;10.56;78.69;100531.58;1788152;78;25714;-68
2021/08/28 04:04:42;;;;;;;27.37;10.65;;;;;;;10.49;78.73;100519.86;1779997;78;26376;-67
2021/08/28 04:07:08;;;;;;;19.48;11.57;;;;;;;10.53;78.74;100530.38;1782241;78;25759;-68
2021/08/28 04:09:34;;;;;;;19.70;10.70;;;;;;;10.51;78.74;100533.59;1786864;78;27446;-67
2021/08/28 04:12:00;;;;;;;16.75;10.43;;;;;;;10.50;78.78;100529.17;1778105;79;25775;-68
2021/08/28 04:14:26;;;;;;;27.58;11.08;;;;;;;10.49;78.76;100526.09;1785169;78;26599;-68
2021/08/28 04:16:52;;;;;;;18.10;9.98;;;;;;;10.49;78.82;100523.88;1791492;78;25776;-68
2021/08/28 04:19:18;;;;;;;18.30;10.13;;;;;;;10.49;78.85;100525.23;1786492;78;25743;-67
2021/08/28 04:21:44;;;;;;;18.52;10.90;;;;;;;10.49;78.87;100526.09;1794776;78;27428;-68
2021/08/28 04:24:10;;;;;;;22.45;12.03;;;;;;;10.49;78.89;100528.77;1797083;78;25731;-68
2021/08/28 04:26:35;;;;;;;19.87;11.00;;;;;;;10.50;78.90;100529.17;1804887;78;25687;-67
2021/08/28 04:29:01;;;;;;;14.80;10.13;;;;;;;10.49;78.81;100530.11;1775442;79;26023;-67
2021/08/28 04:31:27;;;;;;;22.07;9.83;;;;;;;10.48;78.82;100529.71;1778011;79;25682;-67
2021/08/28 04:33:53;;;;;;;14.15;10.08;;;;;;;10.47;78.90;100533.33;1776937;79;28169;-68
2021/08/28 04:36:19;;;;;;;24.00;9.75;;;;;;;10.47;78.91;100536.02;1778252;79;25888;-68
2021/08/28 04:38:45;;;;;;;14.03;10.20;;;;;;;10.48;78.90;100535.08;1773565;79;25838;-68
2021/08/28 04:41:10;;;;;;;17.55;10.03;;;;;;;10.47;78.95;100540.03;1782096;78;25693;-68
2021/08/28 04:43:55;;;;;;;16.73;10.13;;;;;;;10.49;78.98;100535.47;1792712;78;25826;-68
2021/08/28 04:46:21;;;;;;;16.90;10.65;;;;;;;10.50;79.04;100538.55;1798053;78;27773;-68
2021/08/28 04:48:48;;;;;;;14.33;9.85;;;;;;;10.52;79.06;100545.19;1794869;78;26372;-67
2021/08/28 04:51:14;;;;;;;19.37;10.43;;;;;;;10.53;79.08;100545.59;1787592;78;25967;-68
2021/08/28 04:53:40;;;;;;;15.95;10.55;;;;;;;10.54;79.11;100544.65;1799622;78;26052;-69
2021/08/28 04:56:05;;;;;;;13.93;10.28;;;;;;;10.55;79.16;100542.37;1779316;79;26131;-67
2021/08/28 04:58:32;;;;;;;17.17;10.88;;;;;;;10.56;79.16;100546.32;1774681;79;27430;-67
2021/08/28 05:00:58;;;;;;;17.90;10.78;;;;;;;10.59;79.16;100546.66;1755313;80;26150;-68
2021/08/28 05:03:25;;;;;;;21.00;11.38;;;;;;;10.60;79.18;100546.58;1753917;80;26317;-68
2021/08/28 05:05:54;;;;;;;15.90;10.18;;;;;;;10.62;79.18;100546.05;1759358;80;26286;-67
2021/08/28 05:08:21;;;;;;;21.33;11.00;;;;;;;10.64;79.20;100552.67;1765613;80;25796;-67
2021/08/28 05:10:48;;;;;;;18.07;10.75;;;;;;;10.67;79.24;100549.39;1753592;80;27442;-68
2021/08/28 05:13:14;;;;;;;22.50;11.22;;;;;;;10.72;79.29;100555.87;1758980;80;25798;-67
2021/08/28 05:15:40;;;;;;;22.50;11.80;;;;;;;10.76;79.31;100554.80;1764818;79;25825;-68
2021/08/28 05:18:06;;;;;;;20.05;11.65;;;;;;;10.81;79.30;100558.14;1794118;77;27355;-68
2021/08/28 05:20:32;;;;;;;15.80;9.85;;;;;;;10.84;79.22;100559.34;1797865;77;25816;-68
2021/08/28 05:22:58;;;;;;;23.87;12.15;;;;;;;10.85;79.16;100559.75;1794578;78;27389;-67
2021/08/28 05:25:25;;;;;;;21.35;11.48;;;;;;;10.84;79.19;100562.50;1785225;78;25748;-67
2021/08/28 05:27:53;;;;;;;20.12;11.65;;;;;;;10.84;79.22;100563.37;1794030;78;27476;-67
2021/08/28 05:30:19;;;;;;;19.80;11.95;;;;;;;10.85;79.31;100566.92;1791546;78;25868;-67
2021/08/28 05:32:45;;;;;;;19.92;12.55;;;;;;;10.87;79.37;100564.57;1790392;78;25687;-68
2021/08/28 05:35:11;;;;;;;24.40;14.00;;;;;;;10.88;79.31;100560.95;1787937;78;27355;-67
2021/08/28 05:37:38;;;;;;;21.33;13.72;;;;;;;10.90;79.35;100556.85;1794783;78;25727;-68
2021/08/28 05:40:10;;;;;;;22.20;14.33;;;;;;;10.92;79.42;100554.50;1792636;78;25816;-68
2021/08/28 05:42:36;;;;;;;28.62;14.35;;;;;;;10.97;79.46;100551.61;1789318;78;25729;-68
2021/08/28 05:45:03;;;;;;;23.02;14.68;;;;;;;11.00;79.52;100552.33;1795648;78;25839;-68
2021/08/28 05:47:29;;;;;;;25.45;15.35;;;;;;;11.04;79.54;100547.70;1774594;78;27999;-68
2021/08/28 05:49:54;;;;;;;24.87;15.32;;;;;;;11.08;79.58;100549.30;1787862;78;25800;-68
2021/08/28 05:52:20;;;;;;;24.12;16.52;;;;;;;11.12;79.51;100545.52;1792637;78;26093;-68
2021/08/28 05:54:46;;;;;;;22.80;15.93;;;;;;;11.16;79.60;100548.94;1785200;78;25989;-68
2021/08/28 05:57:30;;;;;;;33.65;15.55;;;;;;;11.21;79.64;100557.16;1785681;78;25708;-68
2021/08/28 05:59:56;;;;;;;34.08;15.48;;;;;;;11.28;79.66;100553.72;1781383;78;28100;-68
2021/08/28 06:02:22;;;;;;;25.08;15.70;;;;;;;11.32;79.63;100554.84;1786298;78;25823;-68
2021/08/28 06:04:48;;;;;;;20.05;14.63;;;;;;;11.38;79.68;100554.55;1788718;78;26567;-67
2021/08/28 06:07:14;;;;;;;24.50;15.83;;;;;;;11.48;79.71;100556.79;1788967;78;25775;-70
2021/08/28 06:09:40;;;;;;;21.68;13.60;;;;;;;11.58;79.75;100564.79;1785700;78;25722;-69
2021/08/28 06:12:06;;;;;;;20.95;15.18;;;;;;;11.66;79.75;100566.16;1789350;78;27482;-68
2021/08/28 06:14:32;;;;;;;25.12;13.25;;;;;;;11.75;79.71;100569.33;1787065;78;26427;-68
2021/08/28 06:16:57;;;;;;;23.75;14.35;;;;;;;11.81;79.73;100562.35;1789477;78;26073;-68
2021/08/28 06:19:23;;;;;;;22.95;13.20;;;;;;;11.87;79.71;100564.26;1784997;78;25911;-69
2021/08/28 06:21:49;;;;;;;22.58;13.38;;;;;;;11.91;79.67;100565.84;1790095;78;25814;-68
2021/08/28 06:24:33;;;;;;;27.10;14.47;;;;;;;11.96;79.67;100563.80;1787905;78;25752;-69
2021/08/28 06:26:59;;;;;;;27.58;13.93;;;;;;;12.02;79.69;100570.68;1787842;78;25782;-68
2021/08/28 06:29:25;;;;;;;33.15;16.00;;;;;;;12.08;79.72;100562.78;1777826;78;25959;-68
2021/08/28 06:32:10;;;;;;;47.00;17.02;;;;;;;12.13;79.68;100566.98;1786589;78;26008;-67
2021/08/28 06:34:35;;;;;;;36.88;17.87;;;;;;;12.19;79.69;100567.14;1793326;78;25738;-66
2021/08/28 06:37:02;;;;;;;32.58;16.60;;;;;;;12.25;79.72;100566.34;1794988;78;27378;-68
2021/08/28 06:39:27;;;;;;;35.40;18.75;;;;;;;12.32;79.72;100562.39;1788697;78;25743;-67
2021/08/28 06:41:54;;;;;;;33.75;17.00;;;;;;;12.41;79.71;100564.21;1798968;77;25961;-67
2021/08/28 06:44:39;;;;;;;31.95;17.75;;;;;;;12.49;79.69;100563.34;1791859;78;25730;-67
2021/08/28 06:47:06;;;;;;;29.40;17.27;;;;;;;12.56;79.70;100558.90;1795696;78;25792;-67
2021/08/28 06:49:32;;;;;;;28.05;17.75;;;;;;;12.65;79.72;100562.45;1788456;78;27994;-67
2021/08/28 06:51:58;;;;;;;34.30;17.00;;;;;;;12.74;79.68;100560.22;1776444;78;26071;-66
2021/08/28 06:54:23;;;;;;;26.68;16.45;;;;;;;12.83;79.68;100556.55;1784300;78;26333;-67
2021/08/28 06:56:49;;;;;;;28.50;16.00;;;;;;;12.95;79.69;100567.13;1803990;77;25821;-68
2021/08/28 06:59:15;;;;;;;31.68;16.07;;;;;;;13.06;79.68;100563.34;1779779;79;25669;-67
2021/08/28 07:01:41;;;;;;;25.62;17.17;;;;;;;13.17;79.66;100562.78;1787994;79;27400;-68
2021/08/28 07:04:07;;;;;;;29.25;15.50;;;;;;;13.27;79.63;100563.53;1794093;77;25769;-70
2021/08/28 07:06:33;;;;;;;22.90;16.48;;;;;;;13.38;79.54;100558.03;1788954;77;25870;-68
2021/08/28 07:08:59;;;;;;;21.68;15.28;;;;;;;13.46;79.50;100556.64;1787836;77;25772;-68
2021/08/28 07:11:25;;;;;;;24.55;16.07;;;;;;;13.55;79.48;100556.12;1787035;77;25632;-69
2021/08/28 07:13:51;;;;;;;23.92;15.95;;;;;;;13.65;79.45;100562.72;1789508;77;27371;-68
2021/08/28 07:16:16;;;;;;;26.65;17.00;;;;;;;13.76;79.37;100558.54;1791195;78;25797;-70
2021/08/28 07:18:42;;;;;;;22.67;14.50;;;;;;;13.81;79.29;100557.80;1789465;78;25776;-69
2021/08/28 07:21:27;;;;;;;24.43;14.55;;;;;;;13.87;79.24;100559.65;1786069;78;25737;-69
2021/08/28 07:23:53;;;;;;;25.88;15.32;;;;;;;13.98;79.21;100557.20;1793955;78;26360;-69
2021/08/28 07:26:19;;;;;;;20.05;14.45;;;;;;;14.08;79.14;100555.31;1796029;78;26801;-69
2021/08/28 07:28:45;;;;;;;23.52;13.25;;;;;;;14.17;79.06;100554.77;1795338;78;26320;-68
2021/08/28 07:31:11;;;;;;;17.50;13.15;;;;;;;14.26;79.07;100560.95;1792896;78;25841;-68
2021/08/28 07:33:37;;;;;;;24.50;13.28;;;;;;;14.37;78.94;100565.22;1792231;78;26194;-69
2021/08/28 07:36:03;;;;;;;24.05;13.98;;;;;;;14.46;78.87;100571.44;1797562;78;25813;-68
2021/08/28 07:38:47;;;;;;;20.25;13.43;;;;;;;14.57;78.79;100569.44;1789205;78;25742;-70
2021/08/28 07:41:13;;;;;;;37.05;14.33;;;;;;;14.69;78.69;100563.77;1773364;79;25891;-69
2021/08/28 07:43:39;;;;;;;19.82;13.20;;;;;;;14.78;78.54;100572.17;1794000;78;25872;-68
2021/08/28 07:46:05;;;;;;;16.62;12.23;;;;;;;14.87;78.43;100567.55;1788926;78;25744;-68
2021/08/28 07:48:31;;;;;;;15.25;11.65;;;;;;;14.97;78.39;100564.27;1779848;79;25785;-69
2021/08/28 07:50:57;;;;;;;18.48;11.95;;;;;;;15.09;78.32;100556.75;1795255;78;27995;-68
2021/08/28 07:53:23;;;;;;;27.15;11.78;;;;;;;15.19;78.18;100562.83;1800580;78;25873;-69
2021/08/28 07:55:48;;;;;;;19.77;9.73;;;;;;;15.29;78.06;100563.10;1806803;78;26400;-69
2021/08/28 07:58:14;;;;;;;14.83;10.65;;;;;;;15.40;77.98;100565.11;1795996;78;25709;-69
2021/08/28 08:00:40;;;;;;;19.87;11.97;;;;;;;15.48;77.78;100561.44;1768472;79;25871;-69
2021/08/28 08:03:06;;;;;;;13.60;10.65;;;;;;;15.56;77.65;100563.15;1765422;79;27554;-69
2021/08/28 08:05:32;;;;;;;14.68;10.65;;;;;;;15.62;77.51;100565.94;1763130;79;25816;-68
2021/08/28 08:07:58;;;;;;;17.32;12.00;;;;;;;15.69;77.39;100564.08;1749127;79;26434;-68
2021/08/28 08:10:23;;;;;;;16.07;12.18;;;;;;;15.76;77.31;100555.95;1765509;79;26360;-68
2021/08/28 08:12:49;;;;;;;13.78;10.68;;;;;;;15.82;77.15;100558.25;1766160;79;25694;-67
2021/08/28 08:15:15;;;;;;;17.27;11.78;;;;;;;15.91;76.98;100560.34;1806544;78;27341;-67
2021/08/28 08:17:41;;;;;;;13.93;11.90;;;;;;;15.99;76.88;100558.96;1772876;79;25803;-66
2021/08/28 08:20:07;;;;;;;14.65;10.38;;;;;;;16.05;76.65;100555.36;1782785;79;25917;-67
2021/08/28 08:22:33;;;;;;;13.43;9.68;;;;;;;16.11;76.50;100557.65;1772419;79;26454;-66
2021/08/28 08:24:59;;;;;;;14.87;8.40;;;;;;;16.15;76.32;100558.31;1803577;77;25788;-67
2021/08/28 08:27:25;;;;;;;9.33;8.03;;;;;;;16.21;76.18;100560.59;1803900;77;27377;-69
2021/08/28 08:29:51;;;;;;;14.35;8.58;;;;;;;16.28;76.07;100560.56;1803474;77;25828;-65
2021/08/28 08:32:17;;;;;;;11.38;8.38;;;;;;;16.32;75.74;100558.02;1805927;77;25707;-64
2021/08/28 08:34:43;;;;;;;15.78;9.23;;;;;;;16.35;75.46;100559.66;1787139;77;26604;-67
2021/08/28 08:37:08;;;;;;;14.10;8.80;;;;;;;16.36;75.24;100562.25;1799283;77;26343;-64
2021/08/28 08:39:34;;;;;;;12.40;8.70;;;;;;;16.44;75.20;100565.78;1801824;77;27374;-64
2021/08/28 08:42:01;;;;;;;13.40;8.23;;;;;;;16.51;74.98;100563.03;1802783;77;25832;-64
2021/08/28 08:44:28;;;;;;;11.38;8.13;;;;;;;16.58;74.77;100557.58;1781099;79;26523;-65
2021/08/28 08:46:54;;;;;;;13.50;8.68;;;;;;;16.71;74.62;100553.56;1798410;77;25872;-65
2021/08/28 08:49:22;;;;;;;12.73;9.30;;;;;;;16.84;74.37;100557.14;1807529;77;25808;-67
2021/08/28 08:51:51;;;;;;;12.30;8.90;;;;;;;16.93;74.10;100551.07;1804350;77;27451;-66
2021/08/28 08:54:20;;;;;;;11.15;8.63;;;;;;;17.05;73.97;100560.16;1772415;79;25810;-66
2021/08/28 08:56:46;;;;;;;11.83;7.67;;;;;;;17.12;73.67;100554.20;1778049;79;25765;-67
2021/08/28 08:59:13;;;;;;;13.75;8.45;;;;;;;17.18;73.34;100556.95;1797602;77;26324;-66
2021/08/28 09:01:39;;;;;;;12.30;8.78;;;;;;;17.28;73.18;100558.50;1795817;77;25705;-66
2021/08/28 09:04:05;;;;;;;15.08;8.78;;;;;;;17.41;73.06;100560.21;1806892;77;27475;-65
2021/08/28 09:06:31;;;;;;;11.38;7.83;;;;;;;17.59;72.85;100558.48;1798611;77;26317;-66
2021/08/28 09:08:57;;;;;;;10.35;7.30;;;;;;;17.76;72.71;100560.36;1792250;77;25788;-66
2021/08/28 09:11:26;;;;;;;14.60;7.47;;;;;;;17.95;72.39;100555.78;1791951;77;26100;-65
2021/08/28 09:14:15;;;;;;;9.03;5.90;;;;;;;18.06;71.94;100559.03;1768708;79;25767;-65
2021/08/28 09:16:41;;;;;;;7.42;4.12;;;;;;;18.20;71.75;100559.34;1797279;77;27442;-65
2021/08/28 09:19:07;;;;;;;8.35;4.20;;;;;;;18.31;71.34;100553.92;1785430;78;25765;-65
2021/08/28 09:21:51;;;;;;;9.20;5.28;;;;;;;18.40;71.02;100560.00;1786768;78;25721;-63
2021/08/28 09:24:17;;;;;;;8.25;5.45;;;;;;;18.60;70.81;100563.88;1768189;79;25821;-64
2021/08/28 09:26:45;;;;;;;12.47;5.72;;;;;;;18.70;70.27;100565.79;1764406;79;25733;-64
2021/08/28 09:29:15;;;;;;;8.35;5.50;;;;;;;18.87;70.06;100563.11;1778522;79;27460;-65
2021/08/28 09:31:45;;;;;;;7.72;5.33;;;;;;;19.04;69.69;100565.34;1774127;79;25907;-63
2021/08/28 09:34:27;;;;;;;11.97;6.00;;;;;;;19.19;69.35;100561.03;1778936;79;25911;-64
2021/08/28 09:37:03;;;;;;;10.95;5.97;;;;;;;19.28;68.91;100559.80;1767132;79;26559;-64
2021/08/28 09:39:42;;;;;;;7.33;4.95;;;;;;;19.24;68.68;100530.27;1793570;78;25777;-64
2021/08/28 09:42:10;;;;;;;10.38;5.70;;;;;;;19.43;68.42;100554.96;1789606;78;27382;-64
2021/08/28 09:44:39;;;;;;;11.10;7.40;;;;;;;19.51;68.21;100552.48;1745450;79;25887;-64
2021/08/28 09:47:29;;;;;;;9.60;6.80;;;;;;;19.57;67.91;100554.73;1785104;78;26405;-64
2021/08/28 09:49:55;;;;;;;8.10;5.92;;;;;;;19.63;67.68;100552.00;1779274;79;25816;-64
2021/08/28 09:52:25;;;;;;;10.72;6.45;;;;;;;19.66;67.53;100545.81;1778109;79;25850;-65
2021/08/28 09:54:54;;;;;;;12.68;6.85;;;;;;;19.78;67.20;100547.52;1776227;79;28088;-64
2021/08/28 09:57:20;;;;;;;14.80;6.80;;;;;;;19.78;67.01;100548.87;1775747;79;25774;-65
2021/08/28 09:59:46;;;;;;;25.40;7.10;;;;;;;19.79;66.83;100545.66;1784862;79;25744;-65
2021/08/28 10:02:30;;;;;;;25.62;7.80;;;;;;;19.73;66.69;100536.66;1775710;79;25707;-65
2021/08/28 10:04:59;;;;;;;22.15;6.47;;;;;;;19.85;66.71;100551.95;1788393;78;25756;-65
2021/08/28 10:07:29;;;;;;;11.90;6.42;;;;;;;19.86;66.11;100550.09;1796388;78;27425;-65
2021/08/28 10:10:02;;;;;;;36.05;9.18;;;;;;;19.86;65.96;100540.58;1780860;79;25783;-65
2021/08/28 10:12:32;;;;;;;28.15;7.78;;;;;;;19.84;65.78;100539.84;1779717;79;26321;-65
2021/08/28 10:14:58;;;;;;;23.45;6.72;;;;;;;19.84;65.70;100541.20;1799786;78;25745;-64
2021/08/28 10:17:27;;;;;;;50.28;8.93;;;;;;;19.77;65.43;100539.48;1783984;79;25743;-64
2021/08/28 10:19:55;;;;;;;12.35;7.10;;;;;;;19.66;64.79;100547.67;1756426;80;27498;-64
2021/08/28 10:22:26;;;;;;;10.72;6.83;;;;;;;19.66;64.79;100547.67;1758303;80;25728;-64
2021/08/28 10:24:54;;;;;;;;;;;;;;;19.57;64.88;100542.99;1763312;80;26027;-65
2021/08/28 10:27:22;;;;;;;8.48;6.65;;;;;;;19.54;64.57;100542.75;1757641;80;25758;-64
2021/08/28 10:29:48;;;;;;;9.35;6.47;;;;;;;19.49;64.70;100534.08;1762602;80;25219;-64
2021/08/28 10:32:15;;;;;;;11.08;6.25;;;;;;;19.56;64.66;100539.91;1752429;80;27604;-64
2021/08/28 10:34:41;;;;;;;7.65;5.45;;;;;;;19.59;64.58;100541.87;1759173;80;25746;-65
2021/08/28 10:37:07;;;;;;;7.15;5.67;;;;;;;19.59;64.33;100543.23;1763049;80;26012;-64
2021/08/28 10:39:34;;;;;;;9.60;7.42;;;;;;;19.65;63.66;100536.42;1753036;80;26618;-64
2021/08/28 10:42:01;;;;;;;6.85;4.97;;;;;;;19.65;63.66;100536.42;1754053;80;25835;-64
2021/08/28 10:44:28;;;;;;;6.30;4.83;;;;;;;19.66;63.96;100541.73;1751712;80;27370;-64
2021/08/28 10:46:53;;;;;;;7.10;5.30;;;;;;;19.70;63.71;100542.34;1752142;80;25741;-64
2021/08/28 10:49:22;;;;;;;5.80;4.17;;;;;;;19.60;63.40;100541.38;1751518;80;25775;-64
2021/08/28 10:51:55;;;;;;;7.08;4.67;;;;;;;19.49;63.50;100523.69;1758522;80;26349;-64
2021/08/28 10:54:29;;;;;;;12.05;5.12;;;;;;;19.49;63.50;100523.69;1757034;80;25838;-64
2021/08/28 10:57:00;;;;;;;6.83;4.55;;;;;;;19.66;63.03;100547.67;1757434;80;27560;-64
2021/08/28 10:59:30;;;;;;;7.08;5.58;;;;;;;19.68;62.99;100541.61;1745207;80;26156;-64
2021/08/28 11:02:14;;;;;;;9.70;5.53;;;;;;;19.67;62.77;100523.56;1755923;80;25908;-64
2021/08/28 11:04:43;;;;;;;9.23;6.17;;;;;;;19.75;62.57;100540.11;1755249;80;25797;-66
2021/08/28 11:07:42;;;;;;;6.83;5.05;;;;;;;19.71;62.36;100539.50;1755011;80;25660;-64
2021/08/28 11:10:28;;;;;;;8.63;5.97;;;;;;;19.63;62.30;100548.79;1756129;80;27465;-65
2021/08/28 11:13:04;;;;;;;14.53;5.83;;;;;;;19.40;62.16;100519.88;1747892;80;26120;-65
2021/08/28 11:15:41;;;;;;;10.03;5.53;;;;;;;19.37;62.28;100520.12;1754014;80;25733;-65
2021/08/28 11:18:10;;;;;;;8.68;5.28;;;;;;;19.37;62.28;100520.12;1762005;79;25821;-65